Time;durP1;ratioP1;P1;durP2;ratioP2;P2;SDS_P1;SDS_P2;PMS_P1;PMS_P2;Temp;Humidity;BMP_temperature;BMP_pressure;BME280_temperature;BME280_humidity;BME280_pressure;Samples;Min_cycle;Max_cycle;Signal;HPM_P1;HPM_P2
2022/03/16 00:00:57;;;;;;;;;;;;;;;3.72;100.00;102469.72;5119710;28;19927;-75
2022/03/16 00:03:22;;;;;;;;;;;;;;;3.71;100.00;102473.91;5112086;28;20274;-75
2022/03/16 00:05:48;;;;;;;;;;;;;;;3.69;100.00;102475.41;5105968;28;19927;-76
2022/03/16 00:08:13;;;;;;;;;;;;;;;3.66;100.00;102465.00;5104514;28;19923;-77
2022/03/16 00:10:38;;;;;;;;;;;;;;;3.63;100.00;102463.84;5103599;28;20293;-76
2022/03/16 00:13:03;;;;;;;;;;;;;;;3.63;100.00;102466.41;5104606;28;19949;-76
2022/03/16 00:15:29;;;;;;;;;;;;;;;3.63;100.00;102468.94;5104952;28;19931;-76
2022/03/16 00:17:54;;;;;;;;;;;;;;;3.59;100.00;102474.56;5105619;28;19920;-76
2022/03/16 00:20:19;;;;;;;;;;;;;;;3.52;100.00;102470.63;5103042;28;19968;-76
2022/03/16 00:22:44;;;;;;;;;;;;;;;3.49;100.00;102472.91;5103018;28;19923;-77
2022/03/16 00:25:11;;;;;;;;;;;;;;;3.47;100.00;102470.25;5103209;28;19942;-76
2022/03/16 00:27:36;;;;;;;;;;;;;;;3.47;100.00;102471.91;5104460;28;19927;-75
2022/03/16 00:30:02;;;;;;;;;;;;;;;3.45;100.00;102468.31;5104582;28;20007;-75
2022/03/16 00:32:27;;;;;;;;;;;;;;;3.44;100.00;102470.00;5103930;28;19931;-75
2022/03/16 00:34:52;;;;;;;;;;;;;;;3.40;100.00;102465.44;5103149;28;19978;-75
2022/03/16 00:37:18;;;;;;;;;;;;;;;3.38;100.00;102476.22;5102473;28;20436;-75
2022/03/16 00:39:43;;;;;;;;;;;;;;;3.38;100.00;102473.69;5099408;28;20360;-76
2022/03/16 00:42:09;;;;;;;;;;;;;;;3.36;100.00;102480.31;5101491;28;19947;-75
2022/03/16 00:44:35;;;;;;;;;;;;;;;3.35;100.00;102481.97;5098939;28;19919;-76
2022/03/16 00:47:01;;;;;;;;;;;;;;;3.39;100.00;102483.09;5099872;28;19915;-75
2022/03/16 00:49:27;;;;;;;;;;;;;;;3.41;100.00;102485.00;5103512;28;19922;-76
2022/03/16 00:51:52;;;;;;;;;;;;;;;3.41;100.00;102476.50;5099500;28;19927;-76
2022/03/16 00:54:17;;;;;;;;;;;;;;;3.44;100.00;102484.34;5101141;28;19981;-75
2022/03/16 00:56:42;;;;;;;;;;;;;;;3.44;100.00;102475.06;5102353;28;19977;-76
2022/03/16 00:59:08;;;;;;;;;;;;;;;3.46;100.00;102476.09;5105026;28;19927;-75
2022/03/16 01:01:33;;;;;;;;;;;;;;;3.53;100.00;102476.63;5102469;28;19927;-76
2022/03/16 01:03:58;;;;;;;;;;;;;;;3.52;100.00;102474.81;5104116;28;20396;-75
2022/03/16 01:06:23;;;;;;;;;;;;;;;3.47;100.00;102477.00;5099297;28;19927;-75
2022/03/16 01:08:49;;;;;;;;;;;;;;;3.43;100.00;102467.31;5104857;28;20369;-76
2022/03/16 01:11:14;;;;;;;;;;;;;;;3.43;100.00;102469.88;5100926;28;20010;-75
2022/03/16 01:13:40;;;;;;;;;;;;;;;3.41;100.00;102467.22;5098249;28;19920;-76
2022/03/16 01:16:05;;;;;;;;;;;;;;;3.37;100.00;102465.16;5118339;27;19920;-76
2022/03/16 01:18:30;;;;;;;;;;;;;;;3.36;100.00;102468.47;5103554;28;19931;-76
2022/03/16 01:20:56;;;;;;;;;;;;;;;3.33;100.00;102455.50;5100312;28;19923;-75
2022/03/16 01:23:21;;;;;;;;;;;;;;;3.33;100.00;102459.69;5102610;28;20011;-75
2022/03/16 01:25:46;;;;;;;;;;;;;;;3.30;100.00;102454.38;5102919;28;19920;-76
2022/03/16 01:28:11;;;;;;;;;;;;;;;3.29;100.00;102455.16;5102934;28;19959;-76
2022/03/16 01:30:37;;;;;;;;;;;;;;;3.30;100.00;102451.81;5102937;28;19928;-77
2022/03/16 01:33:02;;;;;;;;;;;;;;;3.28;100.00;102454.25;5098036;28;20327;-76
2022/03/16 01:35:28;;;;;;;;;;;;;;;3.25;100.00;102446.34;5100513;28;19924;-76
2022/03/16 01:37:53;;;;;;;;;;;;;;;3.27;100.00;102451.56;5103267;28;19968;-77
2022/03/16 01:40:18;;;;;;;;;;;;;;;3.29;100.00;102439.88;5102240;28;19932;-76
2022/03/16 01:42:43;;;;;;;;;;;;;;;3.27;100.00;102444.81;5099627;28;20837;-77
2022/03/16 01:45:09;;;;;;;;;;;;;;;3.29;100.00;102438.22;5100747;28;20119;-76
2022/03/16 01:47:34;;;;;;;;;;;;;;;3.32;100.00;102442.66;5103596;28;19923;-76
2022/03/16 01:49:59;;;;;;;;;;;;;;;3.30;100.00;102436.56;5102616;28;20305;-77
2022/03/16 01:52:26;;;;;;;;;;;;;;;3.29;100.00;102438.22;5102554;28;19916;-77
2022/03/16 01:54:52;;;;;;;;;;;;;;;3.28;100.00;102438.13;5100527;28;19923;-77
2022/03/16 01:57:17;;;;;;;;;;;;;;;3.27;100.00;102431.22;5102421;28;20270;-76
2022/03/16 01:59:43;;;;;;;;;;;;;;;3.24;100.00;102421.72;5101571;28;19920;-76
2022/03/16 02:02:09;;;;;;;;;;;;;;;3.25;100.00;102426.03;5103814;28;19939;-77
2022/03/16 02:04:34;;;;;;;;;;;;;;;3.25;100.00;102422.59;5102480;28;20018;-78
2022/03/16 02:06:59;;;;;;;;;;;;;;;3.26;100.00;102420.16;5102999;28;19915;-77
2022/03/16 02:09:25;;;;;;;;;;;;;;;3.27;100.00;102409.22;5097404;28;19928;-77
2022/03/16 02:11:50;;;;;;;;;;;;;;;3.22;100.00;102413.97;5103204;28;19930;-77
2022/03/16 02:14:17;;;;;;;;;;;;;;;3.19;100.00;102407.72;5102176;28;19923;-76
2022/03/16 02:16:43;;;;;;;;;;;;;;;3.17;100.00;102412.69;5102912;28;20014;-76
2022/03/16 02:19:08;;;;;;;;;;;;;;;3.16;100.00;102413.47;5102460;28;20062;-75
2022/03/16 02:21:36;;;;;;;;;;;;;;;3.19;100.00;102408.59;5100477;28;19940;-77
2022/03/16 02:24:02;;;;;;;;;;;;;;;3.21;100.00;102403.63;5105330;28;19920;-77
2022/03/16 02:26:28;;;;;;;;;;;;;;;3.20;100.00;102399.31;5099998;28;20283;-77
2022/03/16 02:28:53;;;;;;;;;;;;;;;3.17;100.00;102405.06;5103613;28;21327;-76
2022/03/16 02:31:19;;;;;;;;;;;;;;;3.17;100.00;102399.97;5101172;28;20324;-77
2022/03/16 02:33:44;;;;;;;;;;;;;;;3.19;100.00;102400.09;5101498;28;19915;-77
2022/03/16 02:36:10;;;;;;;;;;;;;;;3.18;100.00;102401.75;5098467;28;19920;-77
2022/03/16 02:38:36;;;;;;;;;;;;;;;3.17;100.00;102394.91;5113403;28;19928;-77
2022/03/16 02:41:01;;;;;;;;;;;;;;;3.17;100.00;102399.97;5117156;28;19935;-76
2022/03/16 02:43:27;;;;;;;;;;;;;;;3.21;100.00;102398.56;5125329;28;19919;-80
2022/03/16 02:45:54;;;;;;;;;;;;;;;3.24;100.00;102401.38;5106307;28;20426;-77
2022/03/16 02:48:20;;;;;;;;;;;;;;;3.20;100.00;102397.66;5101019;28;20286;-77
2022/03/16 02:50:45;;;;;;;;;;;;;;;3.16;100.00;102397.31;5101148;28;19931;-78
2022/03/16 02:53:10;;;;;;;;;;;;;;;3.14;100.00;102402.25;5100875;28;19969;-76
2022/03/16 02:55:36;;;;;;;;;;;;;;;3.10;100.00;102401.91;5104194;28;20348;-77
2022/03/16 02:58:01;;;;;;;;;;;;;;;3.06;100.00;102398.19;5101204;28;19935;-76
2022/03/16 03:00:27;;;;;;;;;;;;;;;3.04;100.00;102402.28;5101918;28;20673;-77
2022/03/16 03:02:53;;;;;;;;;;;;;;;3.03;100.00;102400.47;5104930;28;19969;-77
2022/03/16 03:05:18;;;;;;;;;;;;;;;3.02;100.00;102408.88;5104115;28;19924;-76
2022/03/16 03:07:43;;;;;;;;;;;;;;;3.00;100.00;102394.28;5106945;28;20039;-76
2022/03/16 03:10:09;;;;;;;;;;;;;;;2.98;100.00;102396.69;5106669;28;19965;-76
2022/03/16 03:12:35;;;;;;;;;;;;;;;2.99;100.00;102388.28;5106923;28;20647;-77
2022/03/16 03:15:00;;;;;;;;;;;;;;;3.00;100.00;102387.53;5106616;28;20872;-77
2022/03/16 03:17:25;;;;;;;;;;;;;;;3.01;100.00;102393.50;5104233;28;20424;-76
2022/03/16 03:19:51;;;;;;;;;;;;;;;3.00;100.00;102386.66;5104029;28;20178;-77
2022/03/16 03:22:16;;;;;;;;;;;;;;;3.00;100.00;102389.19;5107330;28;20007;-77
2022/03/16 03:24:44;;;;;;;;;;;;;;;2.96;100.00;102388.03;5103257;28;20010;-77
2022/03/16 03:27:09;;;;;;;;;;;;;;;2.95;100.00;102396.41;5108560;28;19968;-77
2022/03/16 03:29:34;;;;;;;;;;;;;;;2.91;100.00;102387.66;5103791;28;19928;-77
2022/03/16 03:32:00;;;;;;;;;;;;;;;2.88;100.00;102389.94;5103677;28;20358;-76
2022/03/16 03:34:25;;;;;;;;;;;;;;;2.85;100.00;102388.78;5103159;28;19927;-77
2022/03/16 03:36:50;;;;;;;;;;;;;;;2.77;100.00;102395.78;5107708;28;20023;-77
2022/03/16 03:39:15;;;;;;;;;;;;;;;2.71;100.00;102400.34;5102950;28;20305;-77
2022/03/16 03:41:41;;;;;;;;;;;;;;;2.69;100.00;102401.88;5104879;28;19920;-77
2022/03/16 03:44:07;;;;;;;;;;;;;;;2.65;100.00;102407.44;5107015;28;19924;-76
2022/03/16 03:46:32;;;;;;;;;;;;;;;2.68;100.00;102400.09;5105687;28;19980;-76
2022/03/16 03:48:57;;;;;;;;;;;;;;;2.70;100.00;102403.66;5106354;28;20377;-77
2022/03/16 03:51:23;;;;;;;;;;;;;;;2.67;100.00;102401.75;5088138;28;20373;-77
2022/03/16 03:53:48;;;;;;;;;;;;;;;2.68;100.00;102398.44;5106159;28;19984;-77
2022/03/16 03:56:13;;;;;;;;;;;;;;;2.68;100.00;102402.63;5101706;28;20339;-77
2022/03/16 03:58:39;;;;;;;;;;;;;;;2.68;100.00;102398.44;5103071;28;19920;-77
2022/03/16 04:01:05;;;;;;;;;;;;;;;2.65;100.00;102395.63;5101535;28;19920;-77
2022/03/16 04:03:31;;;;;;;;;;;;;;;2.66;100.00;102397.41;5103384;28;20314;-77
2022/03/16 04:05:56;;;;;;;;;;;;;;;2.64;100.00;102400.59;5104978;28;19915;-75
2022/03/16 04:08:22;;;;;;;;;;;;;;;2.61;100.00;102400.34;5102157;28;20302;-76
2022/03/16 04:10:47;;;;;;;;;;;;;;;2.57;100.00;102401.72;5083319;28;19920;-77
2022/03/16 04:13:12;;;;;;;;;;;;;;;2.58;100.00;102393.34;5102813;28;19934;-76
2022/03/16 04:15:37;;;;;;;;;;;;;;;2.59;100.00;102396.78;5104172;28;20283;-76
2022/03/16 04:18:03;;;;;;;;;;;;;;;2.60;100.00;102401.09;5106337;28;20002;-77
2022/03/16 04:20:28;;;;;;;;;;;;;;;2.58;100.00;102397.53;5104063;28;19927;-76
2022/03/16 04:22:53;;;;;;;;;;;;;;;2.55;100.00;102394.72;5105865;28;20049;-76
2022/03/16 04:25:18;;;;;;;;;;;;;;;2.56;100.00;102405.03;5103499;28;19927;-75
2022/03/16 04:27:44;;;;;;;;;;;;;;;2.56;100.00;102394.00;5100151;28;19920;-76
2022/03/16 04:30:09;;;;;;;;;;;;;;;2.56;100.00;102394.00;5102417;28;20285;-76
2022/03/16 04:32:35;;;;;;;;;;;;;;;2.58;100.00;102393.34;5104377;28;20283;-76
2022/03/16 04:35:00;;;;;;;;;;;;;;;2.59;100.00;102400.19;5106849;28;19935;-76
2022/03/16 04:37:25;;;;;;;;;;;;;;;2.59;100.00;102389.16;5100023;28;19930;-77
2022/03/16 04:39:50;;;;;;;;;;;;;;;2.65;100.00;102394.75;5103828;28;19920;-76
2022/03/16 04:42:16;;;;;;;;;;;;;;;2.63;100.00;102392.09;5101766;28;20006;-77
2022/03/16 04:44:41;;;;;;;;;;;;;;;2.65;100.00;102385.47;5098698;28;19920;-76
2022/03/16 04:47:06;;;;;;;;;;;;;;;2.66;100.00;102382.16;5099466;28;20535;-77
2022/03/16 04:49:31;;;;;;;;;;;;;;;2.71;100.00;102381.66;5101223;28;20443;-76
2022/03/16 04:51:57;;;;;;;;;;;;;;;2.70;100.00;102378.25;5104039;28;19928;-76
2022/03/16 04:54:22;;;;;;;;;;;;;;;2.68;100.00;102385.75;5104898;28;19927;-75
2022/03/16 04:56:47;;;;;;;;;;;;;;;2.65;100.00;102379.50;5100793;28;19958;-75
2022/03/16 04:59:12;;;;;;;;;;;;;;;2.72;100.00;102383.44;5102878;28;19919;-77
2022/03/16 05:01:38;;;;;;;;;;;;;;;2.75;100.00;102379.53;5107561;28;20007;-77
2022/03/16 05:04:03;;;;;;;;;;;;;;;2.73;100.00;102377.59;5104171;28;19920;-77
2022/03/16 05:06:28;;;;;;;;;;;;;;;2.74;100.00;102375.22;5104022;28;19943;-76
2022/03/16 05:08:54;;;;;;;;;;;;;;;2.75;100.00;102371.91;5101051;28;19991;-77
2022/03/16 05:11:22;;;;;;;;;;;;;;;2.75;100.00;102373.56;5100551;28;20127;-77
2022/03/16 05:13:47;;;;;;;;;;;;;;;2.78;100.00;102374.69;5102658;28;19934;-76
2022/03/16 05:16:13;;;;;;;;;;;;;;;2.77;100.00;102379.66;5097896;28;21073;-77
2022/03/16 05:18:40;;;;;;;;;;;;;;;2.76;100.00;102378.75;5108024;28;19972;-76
2022/03/16 05:21:08;;;;;;;;;;;;;;;2.76;100.00;102388.91;5126246;28;19920;-76
2022/03/16 05:23:33;;;;;;;;;;;;;;;2.73;100.00;102388.69;5116133;28;19951;-79
2022/03/16 05:25:58;;;;;;;;;;;;;;;2.71;100.00;102387.63;5101935;28;19971;-77
2022/03/16 05:28:23;;;;;;;;;;;;;;;2.68;100.00;102375.59;5106439;28;19934;-78
2022/03/16 05:30:49;;;;;;;;;;;;;;;2.69;100.00;102376.47;5103812;28;20491;-77
2022/03/16 05:33:14;;;;;;;;;;;;;;;2.68;100.00;102380.66;5104066;28;20023;-77
2022/03/16 05:35:41;;;;;;;;;;;;;;;2.66;100.00;102374.56;5102217;28;19966;-77
2022/03/16 05:38:08;;;;;;;;;;;;;;;2.66;100.00;102372.00;5101962;28;19927;-76
2022/03/16 05:40:33;;;;;;;;;;;;;;;2.72;100.00;102378.38;5100174;28;19971;-76
2022/03/16 05:42:58;;;;;;;;;;;;;;;2.71;100.00;102372.41;5100629;28;20412;-75
2022/03/16 05:45:24;;;;;;;;;;;;;;;2.77;100.00;102372.91;5102626;28;19997;-77
2022/03/16 05:47:49;;;;;;;;;;;;;;;2.78;100.00;102367.06;5094106;28;19928;-76
2022/03/16 05:50:15;;;;;;;;;;;;;;;2.77;100.00;102374.56;5101897;28;20319;-76
2022/03/16 05:52:41;;;;;;;;;;;;;;;2.78;100.00;102373.81;5096028;28;19943;-76
2022/03/16 05:55:07;;;;;;;;;;;;;;;2.83;100.00;102375.97;5099522;28;20235;-76
2022/03/16 05:57:33;;;;;;;;;;;;;;;2.79;100.00;102371.41;5099561;28;19951;-77
2022/03/16 05:59:58;;;;;;;;;;;;;;;2.83;100.00;102373.41;5100330;28;21402;-77
2022/03/16 06:02:23;;;;;;;;;;;;;;;2.89;100.00;102373.03;5103170;28;19919;-77
2022/03/16 06:04:48;;;;;;;;;;;;;;;2.91;100.00;102371.50;5105083;28;19924;-77
2022/03/16 06:07:14;;;;;;;;;;;;;;;2.93;100.00;102383.59;5102901;28;19931;-77
2022/03/16 06:09:40;;;;;;;;;;;;;;;3.00;100.00;102385.00;5093810;28;20398;-76
2022/03/16 06:12:06;;;;;;;;;;;;;;;3.07;100.00;102382.19;5101746;28;20072;-76
2022/03/16 06:14:31;;;;;;;;;;;;;;;3.15;100.00;102386.22;5103356;28;20449;-76
2022/03/16 06:16:57;;;;;;;;;;;;;;;3.24;100.00;102391.19;5103676;28;19920;-76
2022/03/16 06:19:22;;;;;;;;;;;;;;;3.35;100.00;102392.09;5098658;28;19916;-77
2022/03/16 06:21:48;;;;;;;;;;;;;;;3.42;100.00;102397.78;5101892;28;19928;-76
2022/03/16 06:24:13;;;;;;;;;;;;;;;3.45;100.00;102394.59;5095725;28;19947;-77
2022/03/16 06:26:39;;;;;;;;;;;;;;;3.60;100.00;102398.38;5092395;28;20394;-76
2022/03/16 06:29:04;;;;;;;;;;;;;;;3.88;100.00;102395.47;5094105;28;19928;-76
2022/03/16 06:31:30;;;;;;;;;;;;;;;4.28;100.00;102399.50;5097668;28;19920;-77
2022/03/16 06:33:55;;;;;;;;;;;;;;;4.75;100.00;102403.16;5093324;28;19935;-76
2022/03/16 06:36:20;;;;;;;;;;;;;;;5.15;100.00;102402.69;5092509;28;20026;-77
2022/03/16 06:38:46;;;;;;;;;;;;;;;5.42;97.82;102399.66;5092453;28;20432;-76
2022/03/16 06:41:11;;;;;;;;;;;;;;;5.58;96.52;102400.00;5092828;28;20382;-76
2022/03/16 06:43:36;;;;;;;;;;;;;;;5.73;94.61;102396.78;5092658;28;19919;-75
2022/03/16 06:46:02;;;;;;;;;;;;;;;5.78;93.67;102408.19;5095512;28;20391;-76
2022/03/16 06:48:28;;;;;;;;;;;;;;;5.75;94.94;102395.22;5096636;28;19924;-76
2022/03/16 06:50:53;;;;;;;;;;;;;;;5.84;95.76;102395.88;5092917;28;19919;-76
2022/03/16 06:53:19;;;;;;;;;;;;;;;6.00;92.78;102403.88;5092451;28;19973;-76
2022/03/16 06:55:44;;;;;;;;;;;;;;;6.22;94.17;102395.19;5101148;28;20267;-76
2022/03/16 06:58:09;;;;;;;;;;;;;;;6.86;91.41;102392.81;5096354;28;19923;-76
2022/03/16 07:00:34;;;;;;;;;;;;;;;7.39;90.45;102382.66;5097123;28;20022;-76
2022/03/16 07:03:01;;;;;;;;;;;;;;;7.99;82.54;102372.00;5094709;28;19949;-76
2022/03/16 07:05:27;;;;;;;;;;;;;;;8.32;81.85;102372.34;5090234;28;19920;-76
2022/03/16 07:07:54;;;;;;;;;;;;;;;8.82;79.08;102364.25;5093955;28;20384;-78
2022/03/16 07:10:20;;;;;;;;;;;;;;;9.07;79.59;102366.56;5096856;28;19923;-78
2022/03/16 07:12:45;;;;;;;;;;;;;;;9.28;76.57;102364.34;5096034;28;19950;-78
2022/03/16 07:15:10;;;;;;;;;;;;;;;9.71;72.86;102366.75;5099834;28;19920;-77
2022/03/16 07:17:36;;;;;;;;;;;;;;;9.99;73.01;102359.78;5096772;28;19930;-78
2022/03/16 07:20:03;;;;;;;;;;;;;;;10.40;71.75;102343.13;5094258;28;20388;-79
2022/03/16 07:22:28;;;;;;;;;;;;;;;11.17;67.24;102353.94;5099056;28;20018;-77
2022/03/16 07:24:54;;;;;;;;;;;;;;;11.67;65.08;102347.78;5092595;28;20374;-79
2022/03/16 07:27:19;;;;;;;;;;;;;;;11.96;62.55;102344.00;5097505;28;19923;-78
2022/03/16 07:29:44;;;;;;;;;;;;;;;11.92;61.03;102338.63;5091535;28;19924;-79
2022/03/16 07:32:09;;;;;;;;;;;;;;;11.29;64.88;102335.63;5096491;28;19935;-77
2022/03/16 07:34:35;;;;;;;;;;;;;;;11.08;65.71;102338.03;5095130;28;19928;-78
2022/03/16 07:37:00;;;;;;;;;;;;;;;10.94;65.72;102333.91;5096000;28;19928;-76
2022/03/16 07:39:25;;;;;;;;;;;;;;;10.69;66.04;102340.38;5090515;28;19976;-77
2022/03/16 07:41:50;;;;;;;;;;;;;;;10.85;67.00;102333.44;5094254;28;19919;-77
2022/03/16 07:44:16;;;;;;;;;;;;;;;11.03;63.94;102321.47;5088345;28;20291;-76
2022/03/16 07:46:41;;;;;;;;;;;;;;;11.20;62.88;102333.47;5097431;28;19977;-77
2022/03/16 07:49:06;;;;;;;;;;;;;;;10.71;64.23;102340.47;5096894;28;19926;-79
2022/03/16 07:51:32;;;;;;;;;;;;;;;10.64;65.17;102328.97;5099653;28;20412;-78
2022/03/16 07:53:57;;;;;;;;;;;;;;;11.01;65.24;102321.41;5097332;28;19923;-78
2022/03/16 07:56:22;;;;;;;;;;;;;;;11.29;63.21;102320.19;5097187;28;19945;-79
2022/03/16 07:58:48;;;;;;;;;;;;;;;11.63;62.78;102314.94;5102319;28;19976;-76
2022/03/16 08:01:13;;;;;;;;;;;;;;;12.07;60.53;102339.31;5100965;28;19923;-79
2022/03/16 08:03:39;;;;;;;;;;;;;;;12.05;59.51;102331.53;5114198;28;19952;-79
2022/03/16 08:06:04;;;;;;;;;;;;;;;11.82;61.28;102330.47;5124874;28;19979;-81
2022/03/16 08:08:30;;;;;;;;;;;;;;;11.50;62.17;102328.94;5110747;28;19953;-76
2022/03/16 08:10:56;;;;;;;;;;;;;;;11.27;63.35;102325.25;5106174;28;19972;-76
2022/03/16 08:13:21;;;;;;;;;;;;;;;11.42;62.87;102324.25;5104540;28;19920;-79
2022/03/16 08:15:46;;;;;;;;;;;;;;;11.53;61.14;102338.50;5103952;28;19931;-79
2022/03/16 08:18:12;;;;;;;;;;;;;;;11.89;62.30;102335.91;5105420;28;19931;-78
2022/03/16 08:20:37;;;;;;;;;;;;;;;12.61;58.41;102330.56;5100345;28;19985;-78
2022/03/16 08:23:03;;;;;;;;;;;;;;;12.84;58.92;102330.66;5099419;28;20620;-78
2022/03/16 08:25:29;;;;;;;;;;;;;;;12.62;57.72;102336.63;5101052;28;20341;-77
2022/03/16 08:27:54;;;;;;;;;;;;;;;11.98;60.58;102326.91;5102678;28;19969;-77
2022/03/16 08:30:19;;;;;;;;;;;;;;;11.60;61.37;102329.38;5097066;28;20396;-78
2022/03/16 08:32:47;;;;;;;;;;;;;;;11.67;63.06;102327.16;5109158;28;19977;-79
2022/03/16 08:35:12;;;;;;;;;;;;;;;12.00;60.47;102322.69;5101429;28;19968;-78
2022/03/16 08:37:38;;;;;;;;;;;;;;;12.52;59.18;102327.59;5100191;28;19924;-79
2022/03/16 08:40:07;;;;;;;;;;;;;;;13.13;57.39;102322.41;5099318;28;20336;-80
2022/03/16 08:42:32;;;;;;;;;;;;;;;14.16;53.15;102313.50;5099739;28;19924;-78
2022/03/16 08:44:57;;;;;;;;;;;;;;;14.78;51.65;102317.44;5086165;28;20348;-77
2022/03/16 08:47:25;;;;;;;;;;;;;;;15.32;50.49;102309.72;5102544;28;19931;-80
2022/03/16 08:49:53;;;;;;;;;;;;;;;15.62;49.79;102320.19;5099254;28;19943;-79
2022/03/16 08:52:19;;;;;;;;;;;;;;;16.04;47.70;102325.78;5101047;28;19992;-80
2022/03/16 08:54:45;;;;;;;;;;;;;;;16.49;50.40;102325.28;5099573;28;19975;-79
2022/03/16 08:57:10;;;;;;;;;;;;;;;17.31;45.15;102323.94;5095778;28;19939;-78
2022/03/16 08:59:36;;;;;;;;;;;;;;;17.04;44.91;102318.06;5091491;27;20416;-77
2022/03/16 09:02:02;;;;;;;;;;;;;;;16.88;44.76;102322.03;5097806;28;19922;-79
2022/03/16 09:04:27;;;;;;;;;;;;;;;16.81;45.29;102323.59;5097720;28;19924;-78
2022/03/16 09:06:52;;;;;;;;;;;;;;;17.27;47.34;102327.31;5100154;28;19928;-77
2022/03/16 09:09:17;;;;;;;;;;;;;;;18.07;42.19;102329.97;5092655;28;19962;-78
2022/03/16 09:11:43;;;;;;;;;;;;;;;18.36;44.87;102319.28;5095313;28;20369;-76
2022/03/16 09:14:08;;;;;;;;;;;;;;;18.46;42.28;102319.47;5107777;27;19971;-79
2022/03/16 09:16:34;;;;;;;;;;;;;;;18.45;41.14;102311.66;5096481;28;20015;-77
2022/03/16 09:18:59;;;;;;;;;;;;;;;18.85;40.48;102322.78;5096668;28;20228;-80
2022/03/16 09:21:25;;;;;;;;;;;;;;;19.14;41.44;102316.34;5099219;28;19934;-78
2022/03/16 09:23:52;;;;;;;;;;;;;;;19.84;40.49;102311.31;5096502;28;19959;-76
2022/03/16 09:26:17;;;;;;;;;;;;;;;20.27;37.74;102307.47;5100824;28;19916;-79
2022/03/16 09:28:44;;;;;;;;;;;;;;;20.97;38.14;102307.28;5100822;28;20248;-80
2022/03/16 09:31:10;;;;;;;;;;;;;;;21.45;34.55;102320.72;5101485;28;20011;-82
2022/03/16 09:33:35;;;;;;;;;;;;;;;20.58;36.04;102313.91;5103182;27;20014;-77
2022/03/16 09:36:03;;;;;;;;;;;;;;;20.60;36.47;102313.91;5100225;27;19981;-80
2022/03/16 09:38:32;;;;;;;;;;;;;;;21.01;36.14;102314.28;5097358;27;19932;-78
2022/03/16 09:40:57;;;;;;;;;;;;;;;21.47;35.42;102305.91;5101690;27;19920;-77
2022/03/16 09:43:25;;;;;;;;;;;;;;;21.45;34.43;102310.25;5094347;28;19926;-77
2022/03/16 09:45:54;;;;;;;;;;;;;;;21.53;35.27;102314.66;5105224;28;19916;-78
2022/03/16 09:48:21;;;;;;;;;;;;;;;21.12;34.42;102323.09;5106952;28;19935;-79
2022/03/16 09:50:47;;;;;;;;;;;;;;;20.61;35.22;102310.44;5099954;28;20366;-78
2022/03/16 09:53:14;;;;;;;;;;;;;;;20.65;35.64;102313.97;5102138;28;20035;-78
2022/03/16 09:55:39;;;;;;;;;;;;;;;20.91;35.54;102303.72;5103309;28;19916;-80
2022/03/16 09:58:05;;;;;;;;;;;;;;;21.46;36.21;102294.56;5107390;28;19995;-82
2022/03/16 10:00:33;;;;;;;;;;;;;;;22.20;34.46;102293.16;5083917;28;19927;-76
2022/03/16 10:03:02;;;;;;;;;;;;;;;22.54;34.41;102288.84;5104464;28;19965;-80
2022/03/16 10:05:28;;;;;;;;;;;;;;;22.00;33.30;102300.03;5099597;28;19916;-83
2022/03/16 10:07:53;;;;;;;;;;;;;;;21.92;33.75;102293.03;5104793;28;19924;-77
2022/03/16 10:13:15;;;;;;;;;;;;;;;22.56;32.92;102281.84;5106339;28;19965;-78
2022/03/16 10:15:42;;;;;;;;;;;;;;;23.18;31.40;102272.28;5106626;28;19920;-77
2022/03/16 10:18:07;;;;;;;;;;;;;;;23.02;31.21;102277.53;5101807;28;19957;-79
2022/03/16 10:20:34;;;;;;;;;;;;;;;22.78;33.61;102277.50;5098455;28;19920;-78
2022/03/16 10:23:01;;;;;;;;;;;;;;;22.23;32.18;102295.78;5093753;27;20400;-78
2022/03/16 10:25:27;;;;;;;;;;;;;;;21.66;33.16;102295.56;5095760;28;19920;-80
2022/03/16 10:28:08;;;;;;;;;;;;;;;21.65;34.57;102287.66;5102496;28;20014;-81
2022/03/16 10:30:33;;;;;;;;;;;;;;;22.31;32.61;102291.44;5096928;28;21775;-79
2022/03/16 10:32:59;;;;;;;;;;;;;;;22.13;32.88;102283.53;5096691;28;20500;-79
2022/03/16 10:35:25;;;;;;;;;;;;;;;22.47;33.83;102285.34;5093790;28;20366;-78
2022/03/16 10:37:50;;;;;;;;;;;;;;;22.80;33.75;102275.75;5095538;28;19924;-78
2022/03/16 10:40:19;;;;;;;;;;;;;;;23.58;31.33;102278.25;5097989;28;19978;-78
2022/03/16 10:48:16;;;;;;;;;;;;;;;23.97;32.01;102277.28;5117942;28;20008;-76
2022/03/16 10:50:42;;;;;;;;;;;;;;;24.60;31.55;102269.88;5120587;28;19916;-77
2022/03/16 10:53:09;;;;;;;;;;;;;;;25.06;30.41;102252.84;5093543;28;20290;-78
2022/03/16 10:55:35;;;;;;;;;;;;;;;25.29;30.13;102258.72;5092128;28;19977;-78
2022/03/16 10:58:00;;;;;;;;;;;;;;;25.51;28.51;102245.31;5107327;28;19920;-79
2022/03/16 11:00:27;;;;;;;;;;;;;;;25.12;28.71;102243.13;5098108;28;19941;-79
2022/03/16 11:02:53;;;;;;;;;;;;;;;24.75;29.89;102245.19;5096885;28;20788;-79
2022/03/16 11:05:20;;;;;;;;;;;;;;;24.10;30.50;102243.91;5092378;28;19924;-77
2022/03/16 11:07:47;;;;;;;;;;;;;;;24.04;30.75;102260.59;5094846;28;19938;-80
2022/03/16 11:10:13;;;;;;;;;;;;;;;23.32;31.51;102254.72;5095540;28;20030;-79
2022/03/16 11:15:24;;;;;;;;;;;;;;;21.12;35.29;102243.75;5064345;28;19924;-77
2022/03/16 11:17:51;;;;;;;;;;;;;;;20.85;35.45;102258.38;5096033;28;19920;-79
2022/03/16 11:20:19;;;;;;;;;;;;;;;20.04;36.71;102259.31;5092904;28;19924;-76
2022/03/16 11:25:41;;;;;;;;;;;;;;;18.19;41.09;102259.06;5102003;28;20498;-77
2022/03/16 11:28:11;;;;;;;;;;;;;;;18.33;41.60;102256.72;5100446;28;20402;-76
2022/03/16 11:30:37;;;;;;;;;;;;;;;18.86;40.74;102262.00;5100934;28;19930;-76
2022/03/16 11:33:08;;;;;;;;;;;;;;;19.50;39.73;102266.44;5103374;28;19920;-76
2022/03/16 11:35:34;;;;;;;;;;;;;;;19.80;39.20;102259.91;5102094;27;19936;-76
2022/03/16 11:38:05;;;;;;;;;;;;;;;20.30;38.18;102260.44;5103595;28;19963;-75
2022/03/16 11:40:30;;;;;;;;;;;;;;;21.00;36.85;102257.63;5099561;28;19935;-75
2022/03/16 11:43:04;;;;;;;;;;;;;;;21.02;36.00;102247.16;5097263;28;19920;-76
2022/03/16 11:45:30;;;;;;;;;;;;;;;20.14;37.81;102258.53;5097234;28;19924;-77
2022/03/16 11:47:55;;;;;;;;;;;;;;;19.63;38.71;102264.91;5097296;28;19922;-75
2022/03/16 11:50:21;;;;;;;;;;;;;;;19.68;39.26;102265.84;5098707;28;19925;-76
2022/03/16 11:53:17;;;;;;;;;;;;;;;20.29;38.68;102266.53;5100157;28;19927;-75
2022/03/16 11:55:51;;;;;;;;;;;;;;;20.51;37.17;102266.81;5093812;28;19931;-75
2022/03/16 11:58:16;;;;;;;;;;;;;;;20.59;38.14;102260.78;5084890;28;20018;-75
2022/03/16 12:00:42;;;;;;;;;;;;;;;21.10;36.30;102259.41;5101875;28;20014;-75
2022/03/16 12:03:07;;;;;;;;;;;;;;;20.78;37.33;102259.19;5100001;28;20289;-74
2022/03/16 12:05:51;;;;;;;;;;;;;;;19.51;39.06;102259.50;5101467;28;20306;-74
2022/03/16 12:08:16;;;;;;;;;;;;;;;18.60;40.84;102262.41;5100811;28;20015;-75
2022/03/16 12:10:46;;;;;;;;;;;;;;;18.03;42.69;102257.91;5100501;28;19957;-74
2022/03/16 12:13:14;;;;;;;;;;;;;;;17.98;43.09;102254.31;5103008;28;19919;-74
2022/03/16 12:15:41;;;;;;;;;;;;;;;18.48;42.42;102244.84;5102382;28;20297;-74
2022/03/16 12:18:07;;;;;;;;;;;;;;;19.30;41.42;102247.03;5091166;28;19962;-74
2022/03/16 12:20:42;;;;;;;;;;;;;;;19.55;40.13;102237.81;5102063;28;20018;-74
2022/03/16 12:23:12;;;;;;;;;;;;;;;19.06;40.77;102231.06;5098079;28;19942;-75
2022/03/16 12:25:42;;;;;;;;;;;;;;;19.16;41.01;102233.78;5101794;28;19938;-74
2022/03/16 12:30:59;;;;;;;;;;;;;;;18.84;42.09;102237.66;5099117;28;19977;-75
2022/03/16 12:33:25;;;;;;;;;;;;;;;18.92;41.35;102223.00;5094699;28;19924;-75
2022/03/16 12:35:52;;;;;;;;;;;;;;;18.83;41.63;102234.16;5098978;28;19986;-76
2022/03/16 12:38:18;;;;;;;;;;;;;;;18.34;42.17;102228.09;5112889;27;19923;-76
2022/03/16 12:43:28;;;;;;;;;;;;;;;17.99;43.87;102214.44;5103098;28;19934;-76
2022/03/16 12:46:05;;;;;;;;;;;;;;;17.84;44.59;102209.81;5099069;28;19924;-76
2022/03/16 12:48:34;;;;;;;;;;;;;;;17.92;44.53;102213.44;5100524;28;19931;-77
2022/03/16 12:51:01;;;;;;;;;;;;;;;17.83;44.09;102213.25;5101163;28;19930;-76